»·PEaware :: TBA243 KDEN-KLAX

TBA243 :: KDEN-KLAX

FLIGHT INFORMATION

Flight Status: Arrived
Operator:
TransBrasil Airlines
More flights by this operator :: More flights under this callsign
Pilot: Cullen C. (7783)
Aircraft: AIRBUS A330-200
(A332)
More flights by this aircraft type
Origin: KDEN Denver Intl
United States
Destination: KLAX Los Angeles Intl
United States
More flights between these airports :: More routes between these airports
Route: +BAYLR3 TEHRU DVC PGS RIIVR3
File this flight plan on PilotEdge
Remarks: Twitch streaming twitch.tv / cessnarox
Altitude:
(Current/Filed)
38,000ft
Speed:
(Current/Filed)
450kts
Departed: 05-Apr-17 06:57 PM
Arrived: 05-Apr-17 09:12 PM
Distance/Time
Traveled:
748nm/2:15
Distance/Time
To Go:
Arrived

Flight Plot

Page will automatically refresh every two minutes.


Map Options




Map Legend


Flown Route
Filed Route
Departure Airport
Arrival Airport
Navaid (VOR, NDB)
Fix

Horizontal Profiles

Position Reports

Time Latitude Longitude Heading Altitude Ground
Speed
05-Apr-17 18:27 39.854453 -104.670731 173 5444ft 0kts
05-Apr-17 18:28 39.854453 -104.670731 173 5444ft 0kts
05-Apr-17 18:29 39.854453 -104.670731 173 5444ft 0kts
05-Apr-17 18:30 39.854453 -104.670731 173 5444ft 0kts
05-Apr-17 18:31 39.854453 -104.670731 173 5444ft 0kts
05-Apr-17 18:32 39.854453 -104.670731 173 5444ft 0kts
05-Apr-17 18:33 39.854452 -104.670731 173 5444ft 0kts
05-Apr-17 18:34 39.854453 -104.670731 173 5444ft 0kts
05-Apr-17 18:35 39.854453 -104.670731 173 5444ft 0kts
05-Apr-17 18:36 39.854453 -104.670731 173 5444ft 0kts
05-Apr-17 18:37 39.854453 -104.670731 173 5444ft 0kts
05-Apr-17 18:38 39.854453 -104.670731 173 5444ft 0kts
05-Apr-17 18:39 39.854453 -104.670731 173 5444ft 0kts
05-Apr-17 18:40 39.854453 -104.670731 173 5444ft 0kts
05-Apr-17 18:41 39.854453 -104.670731 173 5444ft 0kts
05-Apr-17 18:42 39.854453 -104.670731 173 5444ft 0kts
05-Apr-17 18:43 39.854453 -104.670731 173 5444ft 0kts
05-Apr-17 18:44 39.854453 -104.670731 173 5444ft 0kts
05-Apr-17 18:45 39.854453 -104.670731 173 5444ft 0kts
05-Apr-17 18:46 39.854507 -104.670739 173 5444ft 0kts
05-Apr-17 18:47 39.855844 -104.671395 100 5444ft 0kts
05-Apr-17 18:48 39.855853 -104.671598 90 5444ft 0kts
05-Apr-17 18:49 39.855853 -104.671598 90 5444ft 0kts
05-Apr-17 18:50 39.855853 -104.671580 90 5444ft 0kts
05-Apr-17 18:51 39.855851 -104.669743 88 5444ft 11kts
05-Apr-17 18:52 39.855847 -104.665113 89 5444ft 9kts
05-Apr-17 18:53 39.855834 -104.664034 89 5444ft 10kts
05-Apr-17 18:54 39.857973 -104.662184 359 5444ft 10kts
05-Apr-17 18:55 39.860998 -104.661630 81 5444ft 0kts
05-Apr-17 18:56 39.860998 -104.661629 81 5444ft 0kts
05-Apr-17 18:57 39.860616 -104.660048 179 5444ft 0kts
05-Apr-17 18:58 39.855207 -104.660056 180 5443ft 83kts
05-Apr-17 18:59 39.813348 -104.660293 189 6419ft 186kts
05-Apr-17 19:00 39.769723 -104.701160 217 8518ft 220kts
05-Apr-17 19:01 39.756516 -104.789214 268 9821ft 295kts
05-Apr-17 19:02 39.757593 -104.901728 275 11132ft 356kts
05-Apr-17 19:03 39.764157 -105.021356 248 13825ft 362kts
05-Apr-17 19:04 39.725871 -105.138650 244 17256ft 347kts
05-Apr-17 19:05 39.684970 -105.254289 247 19208ft 366kts
05-Apr-17 19:06 39.642333 -105.373100 245 21577ft 372kts
05-Apr-17 19:07 39.601872 -105.485571 244 23413ft 383kts
05-Apr-17 19:08 39.556558 -105.609107 248 24853ft 403kts
05-Apr-17 19:09 39.519030 -105.741844 254 26129ft 422kts
05-Apr-17 19:10 39.481310 -105.877795 250 28558ft 409kts
05-Apr-17 19:11 39.444447 -106.009638 247 29772ft 420kts
05-Apr-17 19:12 39.407448 -106.141340 248 31756ft 407kts
05-Apr-17 19:13 39.371677 -106.268113 249 33210ft 403kts
05-Apr-17 19:14 39.335248 -106.396602 250 34452ft 400kts
05-Apr-17 19:15 39.298732 -106.524755 250 35600ft 396kts
05-Apr-17 19:16 39.262434 -106.651504 250 36536ft 393kts
05-Apr-17 19:17 39.216419 -106.759744 234 37253ft 396kts
05-Apr-17 19:18 39.153084 -106.861117 233 37936ft 396kts
05-Apr-17 19:19 39.088979 -106.961474 233 38291ft 388kts
05-Apr-17 19:20 39.021238 -107.067032 233 38249ft 394kts
05-Apr-17 19:21 38.953006 -107.173011 233 38273ft 395kts
05-Apr-17 19:22 38.887472 -107.274419 232 38263ft 394kts
05-Apr-17 19:23 38.825515 -107.369863 229 38284ft 358kts
05-Apr-17 19:24 38.761970 -107.467535 229 38255ft 372kts
05-Apr-17 19:25 38.696190 -107.568433 229 38274ft 368kts
05-Apr-17 19:26 38.633974 -107.663578 229 38230ft 370kts
05-Apr-17 19:27 38.570612 -107.760337 229 38265ft 370kts
05-Apr-17 19:28 38.504796 -107.860377 229 38278ft 369kts
05-Apr-17 19:29 38.438785 -107.960387 229 38252ft 370kts
05-Apr-17 19:30 38.374718 -108.059489 229 38295ft 361kts
05-Apr-17 19:31 38.310038 -108.160285 229 38247ft 371kts
05-Apr-17 19:32 38.245105 -108.261161 229 38275ft 371kts
05-Apr-17 19:33 38.180513 -108.361197 229 38295ft 369kts
05-Apr-17 19:34 38.115632 -108.461370 229 38275ft 370kts
05-Apr-17 19:35 38.050694 -108.561324 229 38301ft 369kts
05-Apr-17 19:36 37.986641 -108.659618 229 38287ft 370kts
05-Apr-17 19:37 37.926958 -108.751093 229 38304ft 369kts
05-Apr-17 19:38 37.868691 -108.839822 229 38279ft 370kts
05-Apr-17 19:39 37.805397 -108.939775 237 38309ft 370kts
05-Apr-17 19:40 37.755405 -109.051705 238 38328ft 364kts
05-Apr-17 19:41 37.705155 -109.164869 238 38307ft 371kts
05-Apr-17 19:42 37.655239 -109.277019 238 38335ft 371kts
05-Apr-17 19:43 37.604835 -109.389882 238 38309ft 371kts
05-Apr-17 19:44 37.554499 -109.502210 238 38317ft 370kts
05-Apr-17 19:45 37.504078 -109.614333 238 38331ft 370kts
05-Apr-17 19:46 37.459348 -109.713630 237 38326ft 370kts
05-Apr-17 19:47 37.408764 -109.825430 237 38328ft 370kts
05-Apr-17 19:48 37.357937 -109.937341 237 38304ft 370kts
05-Apr-17 19:49 37.307219 -110.048684 237 38326ft 365kts
05-Apr-17 19:50 37.256514 -110.159506 237 38305ft 372kts
05-Apr-17 19:51 37.205716 -110.270226 237 38318ft 371kts
05-Apr-17 19:52 37.154401 -110.381690 237 38331ft 369kts
05-Apr-17 19:53 37.103210 -110.492505 237 38303ft 370kts
05-Apr-17 19:54 37.052164 -110.602647 237 38319ft 370kts
05-Apr-17 19:55 37.005042 -110.704110 237 38211ft 369kts
05-Apr-17 19:56 36.953585 -110.814471 237 38198ft 370kts
05-Apr-17 19:57 36.902051 -110.924584 237 38224ft 369kts
05-Apr-17 19:58 36.858034 -111.018016 237 38204ft 370kts
05-Apr-17 19:59 36.806548 -111.127297 237 38225ft 369kts
05-Apr-17 20:00 36.754864 -111.236686 237 38209ft 369kts
05-Apr-17 20:01 36.703450 -111.345134 237 38230ft 371kts
05-Apr-17 20:02 36.651681 -111.454014 237 38204ft 368kts
05-Apr-17 20:03 36.599436 -111.563516 237 38202ft 369kts
05-Apr-17 20:04 36.550855 -111.665029 236 38222ft 369kts
05-Apr-17 20:05 36.499960 -111.771208 236 38200ft 369kts
05-Apr-17 20:06 36.447687 -111.879754 236 38223ft 368kts
05-Apr-17 20:07 36.396076 -111.986556 236 38234ft 364kts
05-Apr-17 20:08 36.343603 -112.094824 236 38287ft 368kts
05-Apr-17 20:09 36.291050 -112.202888 236 38279ft 370kts
05-Apr-17 20:10 36.238649 -112.310307 236 38305ft 368kts
05-Apr-17 20:11 36.185545 -112.418815 236 38291ft 368kts
05-Apr-17 20:12 36.132818 -112.526212 236 38278ft 369kts
05-Apr-17 20:13 36.080338 -112.632772 236 38293ft 361kts
05-Apr-17 20:14 36.030512 -112.733791 236 38290ft 368kts
05-Apr-17 20:15 35.977436 -112.840925 236 38304ft 368kts
05-Apr-17 20:16 35.924141 -112.948144 236 38276ft 368kts
05-Apr-17 20:17 35.875256 -113.045958 236 38307ft 367kts
05-Apr-17 20:18 35.826463 -113.143438 236 38282ft 368kts
05-Apr-17 20:19 35.773996 -113.248039 236 38267ft 365kts
05-Apr-17 20:20 35.720138 -113.355131 236 38150ft 365kts
05-Apr-17 20:21 35.666815 -113.460806 236 38151ft 368kts
05-Apr-17 20:22 35.615073 -113.568121 241 38176ft 369kts
05-Apr-17 20:23 35.571118 -113.676714 240 38146ft 370kts
05-Apr-17 20:24 35.527733 -113.783835 240 38170ft 368kts
05-Apr-17 20:25 35.482414 -113.895249 240 38157ft 368kts
05-Apr-17 20:26 35.437013 -114.006484 240 38146ft 369kts
05-Apr-17 20:27 35.391398 -114.117882 240 38169ft 368kts
05-Apr-17 20:28 35.345617 -114.229282 240 38159ft 368kts
05-Apr-17 20:29 35.299839 -114.340315 240 38142ft 369kts
05-Apr-17 20:30 35.253952 -114.451240 240 38115ft 369kts
05-Apr-17 20:31 35.208209 -114.561452 240 38026ft 363kts
05-Apr-17 20:32 35.162682 -114.670810 239 38062ft 368kts
05-Apr-17 20:33 35.116841 -114.780676 239 38044ft 369kts
05-Apr-17 20:34 35.070373 -114.891545 239 38039ft 369kts
05-Apr-17 20:35 35.024008 -115.001788 239 38064ft 367kts
05-Apr-17 20:36 34.977351 -115.112351 239 38036ft 368kts
05-Apr-17 20:37 34.931245 -115.221284 239 38049ft 368kts
05-Apr-17 20:38 34.890392 -115.317396 239 38052ft 368kts
05-Apr-17 20:39 34.847783 -115.417125 239 38053ft 368kts
05-Apr-17 20:40 34.800901 -115.526841 239 38053ft 368kts
05-Apr-17 20:41 34.754226 -115.635722 239 38077ft 369kts
05-Apr-17 20:42 34.711528 -115.735163 239 38167ft 368kts
05-Apr-17 20:43 34.664464 -115.844252 239 38110ft 362kts
05-Apr-17 20:44 34.617349 -115.953225 239 36020ft 370kts
05-Apr-17 20:45 34.569101 -116.064238 239 33826ft 379kts
05-Apr-17 20:46 34.520170 -116.176398 239 32038ft 375kts
05-Apr-17 20:47 34.472872 -116.284488 239 31016ft 355kts
05-Apr-17 20:48 34.428424 -116.386350 239 30000ft 337kts
05-Apr-17 20:49 34.385483 -116.484162 239 28827ft 325kts
05-Apr-17 20:50 34.343498 -116.579411 239 27385ft 322kts
05-Apr-17 20:51 34.302996 -116.671092 239 25889ft 322kts
05-Apr-17 20:52 34.266888 -116.752729 239 24541ft 324kts
05-Apr-17 20:53 34.226490 -116.843704 239 22961ft 328kts
05-Apr-17 20:54 34.183363 -116.940506 238 21231ft 332kts
05-Apr-17 20:55 34.139380 -117.038967 238 19455ft 335kts
05-Apr-17 20:56 34.095953 -117.135969 237 17782ft 318kts
05-Apr-17 20:57 34.055596 -117.225860 238 16420ft 303kts
05-Apr-17 20:58 34.041910 -117.315279 257 15080ft 314kts
05-Apr-17 20:59 34.030658 -117.431976 258 13472ft 314kts
05-Apr-17 21:00 34.020843 -117.533380 259 11896ft 318kts
05-Apr-17 21:01 34.012167 -117.622405 259 10578ft 304kts
05-Apr-17 21:02 34.003760 -117.709478 258 9749ft 272kts
05-Apr-17 21:03 33.995600 -117.794359 258 8661ft 249kts
05-Apr-17 21:04 33.987573 -117.877352 259 7553ft 257kts
05-Apr-17 21:05 33.979392 -117.961767 259 6370ft 248kts
05-Apr-17 21:06 33.972328 -118.034190 259 5370ft 231kts
05-Apr-17 21:07 33.965254 -118.106270 258 4376ft 216kts
05-Apr-17 21:08 33.959273 -118.166860 258 3564ft 202kts
05-Apr-17 21:09 33.953569 -118.225395 260 2731ft 171kts
05-Apr-17 21:10 33.948303 -118.277203 262 1889ft 143kts
05-Apr-17 21:11 33.943822 -118.320817 261 1206ft 138kts
05-Apr-17 21:12 33.938869 -118.368852 262 368ft 142kts
05-Apr-17 21:13 33.935374 -118.402433 266 138ft 33kts
05-Apr-17 21:14 33.935866 -118.406163 292 138ft 0kts
05-Apr-17 21:15 33.935877 -118.406197 291 138ft 2kts
05-Apr-17 21:16 33.937712 -118.409568 280 138ft 11kts
05-Apr-17 21:17 33.938632 -118.411554 353 138ft 12kts
05-Apr-17 21:18 33.940193 -118.410852 83 138ft 5kts
05-Apr-17 21:19 33.940213 -118.410665 82 138ft 0kts
05-Apr-17 21:20 33.940213 -118.410665 82 138ft 0kts
05-Apr-17 21:21 33.935954 -118.406843 268 138ft 10kts

Navigation Log

Ident Type
Flight plan parsing failed, navigation log unavailable